sensor_id;sensor_type;location;lat;lon;timestamp;temperature;humidity
2409;DHT22;8463;48.094;7.970;2024-03-23T00:55:34;16.00;1.00
2409;DHT22;8463;48.094;7.970;2024-03-23T00:58:00;16.00;1.00
2409;DHT22;8463;48.094;7.970;2024-03-23T01:00:25;16.00;1.00
2409;DHT22;8463;48.094;7.970;2024-03-23T01:02:51;16.10;1.00
2409;DHT22;8463;48.094;7.970;2024-03-23T01:05:17;16.00;1.00
2409;DHT22;8463;48.094;7.970;2024-03-23T01:07:42;16.10;1.00
2409;DHT22;8463;48.094;7.970;2024-03-23T01:10:08;16.10;1.00
2409;DHT22;8463;48.094;7.970;2024-03-23T01:12:34;16.10;1.00
2409;DHT22;8463;48.094;7.970;2024-03-23T01:14:59;16.00;1.00
2409;DHT22;8463;48.094;7.970;2024-03-23T01:17:25;16.10;1.00
2409;DHT22;8463;48.094;7.970;2024-03-23T01:19:51;16.10;1.00
2409;DHT22;8463;48.094;7.970;2024-03-23T01:22:16;16.10;1.00
2409;DHT22;8463;48.094;7.970;2024-03-23T01:24:42;16.10;1.00
2409;DHT22;8463;48.094;7.970;2024-03-23T01:27:08;16.00;1.00
2409;DHT22;8463;48.094;7.970;2024-03-23T01:29:36;16.10;1.00
2409;DHT22;8463;48.094;7.970;2024-03-23T01:32:02;16.20;1.00
2409;DHT22;8463;48.094;7.970;2024-03-23T01:34:28;16.20;1.00
2409;DHT22;8463;48.094;7.970;2024-03-23T01:36:53;16.20;1.00
2409;DHT22;8463;48.094;7.970;2024-03-23T01:39:19;16.20;1.00
2409;DHT22;8463;48.094;7.970;2024-03-23T01:41:44;16.10;1.00
2409;DHT22;8463;48.094;7.970;2024-03-23T01:44:10;16.10;1.00
2409;DHT22;8463;48.094;7.970;2024-03-23T01:46:37;16.20;1.00
2409;DHT22;8463;48.094;7.970;2024-03-23T01:49:06;16.20;1.00
2409;DHT22;8463;48.094;7.970;2024-03-23T01:51:33;16.10;1.00
2409;DHT22;8463;48.094;7.970;2024-03-23T01:54:00;16.10;1.00
2409;DHT22;8463;48.094;7.970;2024-03-23T01:56:31;16.00;1.00
2409;DHT22;8463;48.094;7.970;2024-03-23T01:58:59;16.00;1.00
2409;DHT22;8463;48.094;7.970;2024-03-23T02:01:24;16.00;1.00
2409;DHT22;8463;48.094;7.970;2024-03-23T02:03:50;16.00;1.00
2409;DHT22;8463;48.094;7.970;2024-03-23T02:06:16;16.00;1.00
2409;DHT22;8463;48.094;7.970;2024-03-23T02:08:42;15.90;1.00
2409;DHT22;8463;48.094;7.970;2024-03-23T02:11:08;15.90;1.00
2409;DHT22;8463;48.094;7.970;2024-03-23T02:13:33;15.90;1.00
2409;DHT22;8463;48.094;7.970;2024-03-23T02:15:59;15.90;1.00
2409;DHT22;8463;48.094;7.970;2024-03-23T02:18:25;15.90;1.00
2409;DHT22;8463;48.094;7.970;2024-03-23T02:20:50;15.90;1.00
2409;DHT22;8463;48.094;7.970;2024-03-23T02:23:17;15.80;1.00
2409;DHT22;8463;48.094;7.970;2024-03-23T02:25:44;15.80;1.00
2409;DHT22;8463;48.094;7.970;2024-03-23T02:28:10;15.80;1.00
2409;DHT22;8463;48.094;7.970;2024-03-23T02:30:36;15.80;1.00
2409;DHT22;8463;48.094;7.970;2024-03-23T02:33:02;15.80;1.00
2409;DHT22;8463;48.094;7.970;2024-03-23T02:35:28;15.70;1.00
2409;DHT22;8463;48.094;7.970;2024-03-23T02:37:53;15.70;1.00
2409;DHT22;8463;48.094;7.970;2024-03-23T02:40:22;15.60;1.00
2409;DHT22;8463;48.094;7.970;2024-03-23T02:42:48;15.60;1.00
2409;DHT22;8463;48.094;7.970;2024-03-23T02:45:14;15.60;1.00
2409;DHT22;8463;48.094;7.970;2024-03-23T02:47:39;15.60;1.00
2409;DHT22;8463;48.094;7.970;2024-03-23T02:50:05;15.60;1.00
2409;DHT22;8463;48.094;7.970;2024-03-23T02:52:31;15.60;1.00
2409;DHT22;8463;48.094;7.970;2024-03-23T02:54:57;15.60;1.00
2409;DHT22;8463;48.094;7.970;2024-03-23T02:57:23;15.70;1.00
2409;DHT22;8463;48.094;7.970;2024-03-23T02:59:48;15.60;1.00
2409;DHT22;8463;48.094;7.970;2024-03-23T03:02:18;15.60;1.00
2409;DHT22;8463;48.094;7.970;2024-03-23T03:04:43;15.50;1.00
2409;DHT22;8463;48.094;7.970;2024-03-23T03:07:09;15.50;1.00
2409;DHT22;8463;48.094;7.970;2024-03-23T03:09:35;15.50;1.00
2409;DHT22;8463;48.094;7.970;2024-03-23T03:12:01;15.40;1.00
2409;DHT22;8463;48.094;7.970;2024-03-23T03:14:27;15.40;1.00
2409;DHT22;8463;48.094;7.970;2024-03-23T03:16:54;15.40;1.00
2409;DHT22;8463;48.094;7.970;2024-03-23T03:19:19;15.30;1.00
2409;DHT22;8463;48.094;7.970;2024-03-23T03:21:45;15.30;1.00
2409;DHT22;8463;48.094;7.970;2024-03-23T03:24:11;15.20;1.00
2409;DHT22;8463;48.094;7.970;2024-03-23T03:26:36;15.30;1.00
2409;DHT22;8463;48.094;7.970;2024-03-23T03:29:04;15.30;1.00
2409;DHT22;8463;48.094;7.970;2024-03-23T03:31:30;15.20;1.00
2409;DHT22;8463;48.094;7.970;2024-03-23T03:33:56;15.20;1.00
2409;DHT22;8463;48.094;7.970;2024-03-23T03:36:21;15.20;1.00
2409;DHT22;8463;48.094;7.970;2024-03-23T03:38:47;15.20;1.00
2409;DHT22;8463;48.094;7.970;2024-03-23T03:41:12;15.20;1.00
2409;DHT22;8463;48.094;7.970;2024-03-23T03:43:38;15.20;1.00
2409;DHT22;8463;48.094;7.970;2024-03-23T03:46:04;15.20;1.00
2409;DHT22;8463;48.094;7.970;2024-03-23T03:48:29;15.20;1.00
2409;DHT22;8463;48.094;7.970;2024-03-23T03:50:55;15.20;1.00
2409;DHT22;8463;48.094;7.970;2024-03-23T03:53:21;15.20;1.00
2409;DHT22;8463;48.094;7.970;2024-03-23T03:55:47;15.20;1.00
2409;DHT22;8463;48.094;7.970;2024-03-23T03:58:15;15.20;1.00
2409;DHT22;8463;48.094;7.970;2024-03-23T04:00:40;15.20;1.00
2409;DHT22;8463;48.094;7.970;2024-03-23T04:03:06;15.10;1.00
2409;DHT22;8463;48.094;7.970;2024-03-23T04:05:32;15.10;1.00
2409;DHT22;8463;48.094;7.970;2024-03-23T04:07:58;15.10;1.00
2409;DHT22;8463;48.094;7.970;2024-03-23T04:10:24;15.00;1.00
2409;DHT22;8463;48.094;7.970;2024-03-23T04:12:50;15.00;1.00
2409;DHT22;8463;48.094;7.970;2024-03-23T04:15:16;15.00;1.00
2409;DHT22;8463;48.094;7.970;2024-03-23T04:17:42;15.00;1.00
2409;DHT22;8463;48.094;7.970;2024-03-23T04:20:08;14.90;1.00
2409;DHT22;8463;48.094;7.970;2024-03-23T04:22:37;14.90;1.00
2409;DHT22;8463;48.094;7.970;2024-03-23T04:25:03;14.90;1.00
2409;DHT22;8463;48.094;7.970;2024-03-23T04:27:35;14.90;1.00
2409;DHT22;8463;48.094;7.970;2024-03-23T04:30:02;14.90;1.00
2409;DHT22;8463;48.094;7.970;2024-03-23T04:32:29;14.80;1.00
2409;DHT22;8463;48.094;7.970;2024-03-23T04:34:55;14.80;1.00
2409;DHT22;8463;48.094;7.970;2024-03-23T04:37:21;14.70;1.00
2409;DHT22;8463;48.094;7.970;2024-03-23T04:39:47;14.70;1.00
2409;DHT22;8463;48.094;7.970;2024-03-23T04:42:17;14.70;1.00
2409;DHT22;8463;48.094;7.970;2024-03-23T04:44:43;14.60;1.00
2409;DHT22;8463;48.094;7.970;2024-03-23T04:47:08;14.60;1.00
2409;DHT22;8463;48.094;7.970;2024-03-23T04:49:34;14.60;1.00
2409;DHT22;8463;48.094;7.970;2024-03-23T04:52:03;14.60;1.00
2409;DHT22;8463;48.094;7.970;2024-03-23T04:54:30;14.50;1.00
2409;DHT22;8463;48.094;7.970;2024-03-23T04:56:57;14.20;1.00
2409;DHT22;8463;48.094;7.970;2024-03-23T04:59:23;13.70;1.00
2409;DHT22;8463;48.094;7.970;2024-03-23T05:01:49;13.50;1.00
2409;DHT22;8463;48.094;7.970;2024-03-23T05:04:14;13.40;1.00
2409;DHT22;8463;48.094;7.970;2024-03-23T05:06:40;13.20;1.00
2409;DHT22;8463;48.094;7.970;2024-03-23T05:09:05;12.80;1.00
2409;DHT22;8463;48.094;7.970;2024-03-23T05:11:40;12.70;1.00
2409;DHT22;8463;48.094;7.970;2024-03-23T05:14:07;12.30;1.00
2409;DHT22;8463;48.094;7.970;2024-03-23T05:16:33;12.30;1.00
2409;DHT22;8463;48.094;7.970;2024-03-23T05:18:58;12.30;1.00
2409;DHT22;8463;48.094;7.970;2024-03-23T05:21:24;12.00;1.00
2409;DHT22;8463;48.094;7.970;2024-03-23T05:23:50;11.80;1.00
2409;DHT22;8463;48.094;7.970;2024-03-23T05:26:17;11.70;1.00
2409;DHT22;8463;48.094;7.970;2024-03-23T05:28:42;11.70;1.00
2409;DHT22;8463;48.094;7.970;2024-03-23T05:31:09;11.70;1.00
2409;DHT22;8463;48.094;7.970;2024-03-23T05:33:36;11.70;1.00
2409;DHT22;8463;48.094;7.970;2024-03-23T05:36:04;11.60;1.00
2409;DHT22;8463;48.094;7.970;2024-03-23T05:38:29;11.50;1.00
2409;DHT22;8463;48.094;7.970;2024-03-23T05:40:59;11.60;1.00
2409;DHT22;8463;48.094;7.970;2024-03-23T05:43:26;11.60;1.00
2409;DHT22;8463;48.094;7.970;2024-03-23T05:45:55;11.50;1.00
2409;DHT22;8463;48.094;7.970;2024-03-23T05:48:24;11.50;1.00
2409;DHT22;8463;48.094;7.970;2024-03-23T05:50:50;11.50;1.00
2409;DHT22;8463;48.094;7.970;2024-03-23T05:53:16;11.40;1.00
2409;DHT22;8463;48.094;7.970;2024-03-23T05:55:42;11.30;1.00
2409;DHT22;8463;48.094;7.970;2024-03-23T05:58:08;11.20;1.00
2409;DHT22;8463;48.094;7.970;2024-03-23T06:00:34;11.30;1.00
2409;DHT22;8463;48.094;7.970;2024-03-23T06:03:00;11.40;1.00
2409;DHT22;8463;48.094;7.970;2024-03-23T06:05:26;11.50;1.00
2409;DHT22;8463;48.094;7.970;2024-03-23T06:07:51;11.50;1.00
2409;DHT22;8463;48.094;7.970;2024-03-23T06:10:18;11.60;1.00
2409;DHT22;8463;48.094;7.970;2024-03-23T06:12:43;11.60;1.00
2409;DHT22;8463;48.094;7.970;2024-03-23T06:15:11;11.50;1.00
2409;DHT22;8463;48.094;7.970;2024-03-23T06:17:37;11.40;1.00
2409;DHT22;8463;48.094;7.970;2024-03-23T06:20:03;11.50;1.00
2409;DHT22;8463;48.094;7.970;2024-03-23T06:22:29;11.50;1.00
2409;DHT22;8463;48.094;7.970;2024-03-23T06:24:54;11.10;1.00
2409;DHT22;8463;48.094;7.970;2024-03-23T06:27:20;11.10;1.00
2409;DHT22;8463;48.094;7.970;2024-03-23T06:29:45;10.90;1.00
2409;DHT22;8463;48.094;7.970;2024-03-23T06:32:11;11.00;1.00
2409;DHT22;8463;48.094;7.970;2024-03-23T06:34:40;11.00;1.00
2409;DHT22;8463;48.094;7.970;2024-03-23T06:37:06;11.00;1.00
2409;DHT22;8463;48.094;7.970;2024-03-23T06:39:32;10.70;1.00
2409;DHT22;8463;48.094;7.970;2024-03-23T06:41:58;10.50;1.00
2409;DHT22;8463;48.094;7.970;2024-03-23T06:44:23;10.20;1.00
2409;DHT22;8463;48.094;7.970;2024-03-23T06:46:49;10.10;1.00
2409;DHT22;8463;48.094;7.970;2024-03-23T06:49:15;10.10;1.00
2409;DHT22;8463;48.094;7.970;2024-03-23T06:51:41;9.90;1.00
2409;DHT22;8463;48.094;7.970;2024-03-23T06:54:07;9.90;1.00
2409;DHT22;8463;48.094;7.970;2024-03-23T06:56:32;9.90;1.00
2409;DHT22;8463;48.094;7.970;2024-03-23T06:58:59;9.80;1.00
2409;DHT22;8463;48.094;7.970;2024-03-23T07:01:24;9.90;1.00
2409;DHT22;8463;48.094;7.970;2024-03-23T07:03:50;10.00;1.00
2409;DHT22;8463;48.094;7.970;2024-03-23T07:06:16;10.00;1.00
2409;DHT22;8463;48.094;7.970;2024-03-23T07:08:41;10.00;1.00
2409;DHT22;8463;48.094;7.970;2024-03-23T07:11:07;9.90;1.00
2409;DHT22;8463;48.094;7.970;2024-03-23T07:13:33;9.90;1.00
2409;DHT22;8463;48.094;7.970;2024-03-23T07:15:58;9.80;1.00
2409;DHT22;8463;48.094;7.970;2024-03-23T07:18:25;9.70;1.00
2409;DHT22;8463;48.094;7.970;2024-03-23T07:20:58;9.70;1.00
2409;DHT22;8463;48.094;7.970;2024-03-23T07:23:24;9.60;1.00
2409;DHT22;8463;48.094;7.970;2024-03-23T07:28:22;9.60;1.00
2409;DHT22;8463;48.094;7.970;2024-03-23T07:30:48;9.50;1.00
2409;DHT22;8463;48.094;7.970;2024-03-23T07:33:13;9.50;1.00
2409;DHT22;8463;48.094;7.970;2024-03-23T07:35:39;9.50;1.00
2409;DHT22;8463;48.094;7.970;2024-03-23T07:38:05;9.50;1.00
2409;DHT22;8463;48.094;7.970;2024-03-23T07:40:31;9.50;1.00
2409;DHT22;8463;48.094;7.970;2024-03-23T07:42:56;9.40;1.00
2409;DHT22;8463;48.094;7.970;2024-03-23T07:45:22;9.40;1.00
2409;DHT22;8463;48.094;7.970;2024-03-23T07:47:50;9.20;1.00
2409;DHT22;8463;48.094;7.970;2024-03-23T07:50:16;9.20;1.00
2409;DHT22;8463;48.094;7.970;2024-03-23T07:52:41;9.20;1.00
2409;DHT22;8463;48.094;7.970;2024-03-23T07:55:07;9.10;1.00
2409;DHT22;8463;48.094;7.970;2024-03-23T07:57:32;9.10;1.00
2409;DHT22;8463;48.094;7.970;2024-03-23T07:59:58;9.00;1.00
2409;DHT22;8463;48.094;7.970;2024-03-23T08:02:24;9.10;1.00
2409;DHT22;8463;48.094;7.970;2024-03-23T08:04:49;9.10;1.00
2409;DHT22;8463;48.094;7.970;2024-03-23T08:07:15;9.10;1.00
2409;DHT22;8463;48.094;7.970;2024-03-23T08:09:41;9.00;1.00
2409;DHT22;8463;48.094;7.970;2024-03-23T08:12:07;9.00;1.00
2409;DHT22;8463;48.094;7.970;2024-03-23T08:14:32;9.00;1.00
2409;DHT22;8463;48.094;7.970;2024-03-23T08:17:00;9.00;1.00
2409;DHT22;8463;48.094;7.970;2024-03-23T08:19:26;9.10;1.00
2409;DHT22;8463;48.094;7.970;2024-03-23T08:21:52;9.00;1.00
2409;DHT22;8463;48.094;7.970;2024-03-23T08:24:19;9.10;1.00
2409;DHT22;8463;48.094;7.970;2024-03-23T08:26:45;9.00;1.00
2409;DHT22;8463;48.094;7.970;2024-03-23T08:29:11;8.90;1.00
2409;DHT22;8463;48.094;7.970;2024-03-23T08:31:36;9.00;1.00
2409;DHT22;8463;48.094;7.970;2024-03-23T08:34:02;8.90;1.00
2409;DHT22;8463;48.094;7.970;2024-03-23T08:36:30;8.90;1.00
2409;DHT22;8463;48.094;7.970;2024-03-23T08:38:56;9.00;1.00
2409;DHT22;8463;48.094;7.970;2024-03-23T08:41:21;9.00;1.00
2409;DHT22;8463;48.094;7.970;2024-03-23T08:43:47;9.00;1.00
2409;DHT22;8463;48.094;7.970;2024-03-23T08:46:14;9.00;1.00
2409;DHT22;8463;48.094;7.970;2024-03-23T08:48:44;9.00;1.00
2409;DHT22;8463;48.094;7.970;2024-03-23T08:51:15;9.00;1.00
2409;DHT22;8463;48.094;7.970;2024-03-23T08:53:41;8.90;1.00
2409;DHT22;8463;48.094;7.970;2024-03-23T08:56:08;9.00;1.00
2409;DHT22;8463;48.094;7.970;2024-03-23T08:58:35;9.00;1.00
2409;DHT22;8463;48.094;7.970;2024-03-23T09:01:08;9.00;1.00
2409;DHT22;8463;48.094;7.970;2024-03-23T09:03:35;9.00;1.00
2409;DHT22;8463;48.094;7.970;2024-03-23T09:06:02;9.10;1.00
2409;DHT22;8463;48.094;7.970;2024-03-23T09:08:27;9.10;1.00
2409;DHT22;8463;48.094;7.970;2024-03-23T09:10:53;9.20;1.00
2409;DHT22;8463;48.094;7.970;2024-03-23T09:13:19;9.10;1.00
2409;DHT22;8463;48.094;7.970;2024-03-23T09:15:48;9.30;1.00
2409;DHT22;8463;48.094;7.970;2024-03-23T09:18:14;9.20;1.00
2409;DHT22;8463;48.094;7.970;2024-03-23T09:20:40;9.20;1.00
2409;DHT22;8463;48.094;7.970;2024-03-23T09:23:05;9.30;1.00
2409;DHT22;8463;48.094;7.970;2024-03-23T09:25:31;9.40;1.00
2409;DHT22;8463;48.094;7.970;2024-03-23T09:27:58;9.50;1.00
2409;DHT22;8463;48.094;7.970;2024-03-23T09:30:24;9.40;1.00
2409;DHT22;8463;48.094;7.970;2024-03-23T09:32:49;9.40;1.00
2409;DHT22;8463;48.094;7.970;2024-03-23T09:35:15;9.50;1.00
2409;DHT22;8463;48.094;7.970;2024-03-23T09:37:41;9.60;1.00
2409;DHT22;8463;48.094;7.970;2024-03-23T09:40:10;9.70;1.00
2409;DHT22;8463;48.094;7.970;2024-03-23T09:42:36;9.60;1.00
2409;DHT22;8463;48.094;7.970;2024-03-23T09:45:02;9.60;1.00
2409;DHT22;8463;48.094;7.970;2024-03-23T09:47:31;9.60;1.00
2409;DHT22;8463;48.094;7.970;2024-03-23T09:49:58;9.80;1.00
2409;DHT22;8463;48.094;7.970;2024-03-23T09:52:23;9.80;1.00
2409;DHT22;8463;48.094;7.970;2024-03-23T09:54:51;10.00;1.00
2409;DHT22;8463;48.094;7.970;2024-03-23T09:57:17;9.90;1.00
2409;DHT22;8463;48.094;7.970;2024-03-23T09:59:43;9.90;1.00
2409;DHT22;8463;48.094;7.970;2024-03-23T10:02:08;10.00;1.00
2409;DHT22;8463;48.094;7.970;2024-03-23T10:04:39;10.10;1.00
2409;DHT22;8463;48.094;7.970;2024-03-23T10:07:19;10.10;1.00
2409;DHT22;8463;48.094;7.970;2024-03-23T10:09:45;10.10;1.00
2409;DHT22;8463;48.094;7.970;2024-03-23T10:12:16;10.10;1.00
2409;DHT22;8463;48.094;7.970;2024-03-23T10:14:42;10.30;1.00
2409;DHT22;8463;48.094;7.970;2024-03-23T10:17:16;10.30;1.00
2409;DHT22;8463;48.094;7.970;2024-03-23T10:19:49;10.20;1.00
2409;DHT22;8463;48.094;7.970;2024-03-23T10:24:44;9.90;1.00
2409;DHT22;8463;48.094;7.970;2024-03-23T10:27:15;9.90;1.00
2409;DHT22;8463;48.094;7.970;2024-03-23T10:29:43;9.90;1.00
2409;DHT22;8463;48.094;7.970;2024-03-23T10:32:10;9.80;1.00
2409;DHT22;8463;48.094;7.970;2024-03-23T10:34:38;9.70;1.00
2409;DHT22;8463;48.094;7.970;2024-03-23T10:37:05;9.40;1.00
2409;DHT22;8463;48.094;7.970;2024-03-23T10:39:33;9.10;1.00
2409;DHT22;8463;48.094;7.970;2024-03-23T10:42:04;9.00;1.00
2409;DHT22;8463;48.094;7.970;2024-03-23T10:44:31;8.90;1.00
2409;DHT22;8463;48.094;7.970;2024-03-23T10:47:01;8.60;1.00
2409;DHT22;8463;48.094;7.970;2024-03-23T10:49:29;8.30;1.00
2409;DHT22;8463;48.094;7.970;2024-03-23T10:51:59;7.90;1.00
2409;DHT22;8463;48.094;7.970;2024-03-23T10:54:26;7.40;1.00
2409;DHT22;8463;48.094;7.970;2024-03-23T10:57:17;7.10;1.00
2409;DHT22;8463;48.094;7.970;2024-03-23T10:59:44;6.60;1.00
2409;DHT22;8463;48.094;7.970;2024-03-23T11:02:19;6.50;1.00
2409;DHT22;8463;48.094;7.970;2024-03-23T11:04:45;6.30;1.00
2409;DHT22;8463;48.094;7.970;2024-03-23T11:09:56;6.30;1.00
2409;DHT22;8463;48.094;7.970;2024-03-23T11:15:05;6.10;1.00
2409;DHT22;8463;48.094;7.970;2024-03-23T11:17:31;6.10;1.00
2409;DHT22;8463;48.094;7.970;2024-03-23T11:20:02;6.10;1.00
2409;DHT22;8463;48.094;7.970;2024-03-23T11:25:24;6.30;1.00
2409;DHT22;8463;48.094;7.970;2024-03-23T11:27:56;6.20;1.00
2409;DHT22;8463;48.094;7.970;2024-03-23T11:30:24;6.40;1.00
2409;DHT22;8463;48.094;7.970;2024-03-23T11:32:51;6.60;1.00
2409;DHT22;8463;48.094;7.970;2024-03-23T11:40:35;6.90;1.00
2409;DHT22;8463;48.094;7.970;2024-03-23T11:43:05;6.90;1.00
2409;DHT22;8463;48.094;7.970;2024-03-23T11:45:45;6.90;1.00
2409;DHT22;8463;48.094;7.970;2024-03-23T11:48:15;7.00;1.00
2409;DHT22;8463;48.094;7.970;2024-03-23T11:50:44;7.20;1.00
2409;DHT22;8463;48.094;7.970;2024-03-23T11:53:23;7.30;1.00
2409;DHT22;8463;48.094;7.970;2024-03-23T11:55:52;7.40;1.00
2409;DHT22;8463;48.094;7.970;2024-03-23T11:58:21;7.50;1.00
2409;DHT22;8463;48.094;7.970;2024-03-23T12:00:51;7.60;1.00
2409;DHT22;8463;48.094;7.970;2024-03-23T12:03:20;7.70;1.00
2409;DHT22;8463;48.094;7.970;2024-03-23T12:05:51;7.80;1.00
2409;DHT22;8463;48.094;7.970;2024-03-23T12:08:31;7.90;1.00
2409;DHT22;8463;48.094;7.970;2024-03-23T12:11:11;8.20;1.00
2409;DHT22;8463;48.094;7.970;2024-03-23T12:13:38;8.30;1.00
2409;DHT22;8463;48.094;7.970;2024-03-23T12:16:11;8.40;1.00
2409;DHT22;8463;48.094;7.970;2024-03-23T12:18:39;8.50;1.00
2409;DHT22;8463;48.094;7.970;2024-03-23T12:21:05;8.60;1.00
2409;DHT22;8463;48.094;7.970;2024-03-23T12:23:31;8.70;1.00
2409;DHT22;8463;48.094;7.970;2024-03-23T12:25:57;9.00;1.00
2409;DHT22;8463;48.094;7.970;2024-03-23T12:28:23;9.50;1.00
2409;DHT22;8463;48.094;7.970;2024-03-23T12:30:49;9.60;1.00
2409;DHT22;8463;48.094;7.970;2024-03-23T12:33:15;9.50;1.00
2409;DHT22;8463;48.094;7.970;2024-03-23T12:35:40;9.30;1.00
2409;DHT22;8463;48.094;7.970;2024-03-23T12:38:06;9.10;1.00
2409;DHT22;8463;48.094;7.970;2024-03-23T12:40:34;9.00;1.00
2409;DHT22;8463;48.094;7.970;2024-03-23T12:43:02;8.90;1.00
2409;DHT22;8463;48.094;7.970;2024-03-23T12:45:28;8.90;1.00
2409;DHT22;8463;48.094;7.970;2024-03-23T12:47:54;8.90;1.00
2409;DHT22;8463;48.094;7.970;2024-03-23T12:50:20;8.90;1.00
2409;DHT22;8463;48.094;7.970;2024-03-23T12:52:46;8.90;1.00
2409;DHT22;8463;48.094;7.970;2024-03-23T12:55:11;8.90;1.00
2409;DHT22;8463;48.094;7.970;2024-03-23T12:57:37;8.90;1.00
2409;DHT22;8463;48.094;7.970;2024-03-23T13:00:04;9.00;1.00
2409;DHT22;8463;48.094;7.970;2024-03-23T13:02:30;9.00;1.00
2409;DHT22;8463;48.094;7.970;2024-03-23T13:04:56;8.90;1.00
2409;DHT22;8463;48.094;7.970;2024-03-23T13:07:22;8.70;1.00
2409;DHT22;8463;48.094;7.970;2024-03-23T13:09:52;8.60;1.00
2409;DHT22;8463;48.094;7.970;2024-03-23T13:12:19;8.60;1.00
2409;DHT22;8463;48.094;7.970;2024-03-23T13:14:46;8.60;1.00
2409;DHT22;8463;48.094;7.970;2024-03-23T13:17:11;8.60;1.00
2409;DHT22;8463;48.094;7.970;2024-03-23T13:19:37;8.60;1.00
2409;DHT22;8463;48.094;7.970;2024-03-23T13:22:03;8.60;1.00
2409;DHT22;8463;48.094;7.970;2024-03-23T13:24:29;8.70;1.00
2409;DHT22;8463;48.094;7.970;2024-03-23T13:26:56;8.80;1.00
2409;DHT22;8463;48.094;7.970;2024-03-23T13:29:22;9.10;1.00
2409;DHT22;8463;48.094;7.970;2024-03-23T13:31:49;9.50;1.00
2409;DHT22;8463;48.094;7.970;2024-03-23T13:34:15;9.80;1.00
2409;DHT22;8463;48.094;7.970;2024-03-23T13:36:41;9.70;1.00
2409;DHT22;8463;48.094;7.970;2024-03-23T13:39:14;9.80;1.00
2409;DHT22;8463;48.094;7.970;2024-03-23T13:41:42;9.70;1.00
2409;DHT22;8463;48.094;7.970;2024-03-23T13:44:08;9.60;1.00
2409;DHT22;8463;48.094;7.970;2024-03-23T13:46:36;9.60;1.00
2409;DHT22;8463;48.094;7.970;2024-03-23T13:49:02;9.60;1.00
2409;DHT22;8463;48.094;7.970;2024-03-23T13:51:27;9.50;1.00
2409;DHT22;8463;48.094;7.970;2024-03-23T13:53:56;9.40;1.00
2409;DHT22;8463;48.094;7.970;2024-03-23T13:56:24;9.30;1.00
2409;DHT22;8463;48.094;7.970;2024-03-23T13:58:50;9.30;1.00
2409;DHT22;8463;48.094;7.970;2024-03-23T14:01:16;9.40;1.00
2409;DHT22;8463;48.094;7.970;2024-03-23T14:03:43;9.30;1.00
2409;DHT22;8463;48.094;7.970;2024-03-23T14:06:10;9.30;1.00
2409;DHT22;8463;48.094;7.970;2024-03-23T14:08:37;9.30;1.00
2409;DHT22;8463;48.094;7.970;2024-03-23T14:11:05;9.40;1.00
2409;DHT22;8463;48.094;7.970;2024-03-23T14:13:31;9.50;1.00
2409;DHT22;8463;48.094;7.970;2024-03-23T14:15:57;9.50;1.00
2409;DHT22;8463;48.094;7.970;2024-03-23T14:18:23;9.50;1.00
2409;DHT22;8463;48.094;7.970;2024-03-23T14:20:49;9.40;1.00
2409;DHT22;8463;48.094;7.970;2024-03-23T14:23:16;9.50;1.00
2409;DHT22;8463;48.094;7.970;2024-03-23T14:25:42;9.60;1.00
2409;DHT22;8463;48.094;7.970;2024-03-23T14:28:07;9.60;1.00
2409;DHT22;8463;48.094;7.970;2024-03-23T14:30:42;9.50;1.00
2409;DHT22;8463;48.094;7.970;2024-03-23T14:33:08;9.60;1.00
2409;DHT22;8463;48.094;7.970;2024-03-23T14:35:34;9.60;1.00
2409;DHT22;8463;48.094;7.970;2024-03-23T14:37:59;9.60;1.00
2409;DHT22;8463;48.094;7.970;2024-03-23T14:40:25;9.70;1.00
2409;DHT22;8463;48.094;7.970;2024-03-23T14:42:53;9.60;1.00
2409;DHT22;8463;48.094;7.970;2024-03-23T14:45:21;9.60;1.00
2409;DHT22;8463;48.094;7.970;2024-03-23T14:47:47;9.70;1.00
2409;DHT22;8463;48.094;7.970;2024-03-23T14:50:13;9.70;1.00
2409;DHT22;8463;48.094;7.970;2024-03-23T14:52:50;9.70;1.00
2409;DHT22;8463;48.094;7.970;2024-03-23T14:55:16;9.70;1.00
2409;DHT22;8463;48.094;7.970;2024-03-23T14:57:42;9.60;1.00
2409;DHT22;8463;48.094;7.970;2024-03-23T15:00:08;9.30;1.00
2409;DHT22;8463;48.094;7.970;2024-03-23T15:02:36;8.90;1.00
2409;DHT22;8463;48.094;7.970;2024-03-23T15:05:02;8.80;1.00
2409;DHT22;8463;48.094;7.970;2024-03-23T15:07:32;8.60;1.00
2409;DHT22;8463;48.094;7.970;2024-03-23T15:09:58;8.60;1.00
2409;DHT22;8463;48.094;7.970;2024-03-23T15:12:23;8.60;1.00
2409;DHT22;8463;48.094;7.970;2024-03-23T15:14:49;8.70;1.00
2409;DHT22;8463;48.094;7.970;2024-03-23T15:17:17;8.70;1.00
2409;DHT22;8463;48.094;7.970;2024-03-23T15:19:44;8.80;1.00
2409;DHT22;8463;48.094;7.970;2024-03-23T15:22:09;8.90;1.00
2409;DHT22;8463;48.094;7.970;2024-03-23T15:24:35;9.00;1.00
2409;DHT22;8463;48.094;7.970;2024-03-23T15:27:02;9.10;1.00
2409;DHT22;8463;48.094;7.970;2024-03-23T15:29:28;9.10;1.00
2409;DHT22;8463;48.094;7.970;2024-03-23T15:31:54;9.00;1.00
2409;DHT22;8463;48.094;7.970;2024-03-23T15:34:20;8.80;1.00
2409;DHT22;8463;48.094;7.970;2024-03-23T15:36:49;8.80;1.00
2409;DHT22;8463;48.094;7.970;2024-03-23T15:39:18;8.80;1.00
2409;DHT22;8463;48.094;7.970;2024-03-23T15:41:45;8.90;1.00
2409;DHT22;8463;48.094;7.970;2024-03-23T15:44:11;8.80;1.00
2409;DHT22;8463;48.094;7.970;2024-03-23T15:46:37;8.50;1.00
2409;DHT22;8463;48.094;7.970;2024-03-23T15:49:02;8.10;1.00
2409;DHT22;8463;48.094;7.970;2024-03-23T15:51:28;7.90;1.00
2409;DHT22;8463;48.094;7.970;2024-03-23T15:54:01;7.80;1.00
2409;DHT22;8463;48.094;7.970;2024-03-23T15:56:28;7.60;1.00
2409;DHT22;8463;48.094;7.970;2024-03-23T15:58:54;7.70;1.00
2409;DHT22;8463;48.094;7.970;2024-03-23T16:01:20;7.60;1.00
2409;DHT22;8463;48.094;7.970;2024-03-23T16:03:46;7.20;1.00
2409;DHT22;8463;48.094;7.970;2024-03-23T16:06:14;7.10;1.00
2409;DHT22;8463;48.094;7.970;2024-03-23T16:08:39;7.10;1.00
2409;DHT22;8463;48.094;7.970;2024-03-23T16:11:06;7.00;1.00
2409;DHT22;8463;48.094;7.970;2024-03-23T16:13:35;6.90;1.00
2409;DHT22;8463;48.094;7.970;2024-03-23T16:16:02;6.90;1.00
2409;DHT22;8463;48.094;7.970;2024-03-23T16:18:29;6.80;1.00
2409;DHT22;8463;48.094;7.970;2024-03-23T16:20:56;6.80;1.00
2409;DHT22;8463;48.094;7.970;2024-03-23T16:23:23;6.80;1.00
2409;DHT22;8463;48.094;7.970;2024-03-23T16:25:50;6.80;1.00
2409;DHT22;8463;48.094;7.970;2024-03-23T16:28:36;6.90;1.00
2409;DHT22;8463;48.094;7.970;2024-03-23T16:31:03;6.90;1.00
2409;DHT22;8463;48.094;7.970;2024-03-23T16:33:30;6.90;1.00
2409;DHT22;8463;48.094;7.970;2024-03-23T16:35:59;7.00;1.00
2409;DHT22;8463;48.094;7.970;2024-03-23T16:38:26;7.10;1.00
2409;DHT22;8463;48.094;7.970;2024-03-23T16:40:56;7.10;1.00
2409;DHT22;8463;48.094;7.970;2024-03-23T16:43:22;7.10;1.00
2409;DHT22;8463;48.094;7.970;2024-03-23T16:46:11;7.00;1.00
2409;DHT22;8463;48.094;7.970;2024-03-23T16:48:41;7.00;1.00
2409;DHT22;8463;48.094;7.970;2024-03-23T16:51:08;7.00;1.00
2409;DHT22;8463;48.094;7.970;2024-03-23T16:53:35;7.10;1.00
2409;DHT22;8463;48.094;7.970;2024-03-23T16:56:01;7.00;1.00
2409;DHT22;8463;48.094;7.970;2024-03-23T16:58:31;7.20;1.00
2409;DHT22;8463;48.094;7.970;2024-03-23T17:01:07;7.20;1.00
2409;DHT22;8463;48.094;7.970;2024-03-23T17:03:35;7.20;1.00
2409;DHT22;8463;48.094;7.970;2024-03-23T17:06:07;7.10;1.00
2409;DHT22;8463;48.094;7.970;2024-03-23T17:08:33;7.10;1.00
2409;DHT22;8463;48.094;7.970;2024-03-23T17:11:02;7.10;1.00
2409;DHT22;8463;48.094;7.970;2024-03-23T17:13:31;7.10;1.00
2409;DHT22;8463;48.094;7.970;2024-03-23T17:15:57;7.00;1.00
2409;DHT22;8463;48.094;7.970;2024-03-23T17:18:22;7.00;1.00
2409;DHT22;8463;48.094;7.970;2024-03-23T17:20:48;7.00;1.00
2409;DHT22;8463;48.094;7.970;2024-03-23T17:23:29;7.00;1.00
2409;DHT22;8463;48.094;7.970;2024-03-23T17:25:56;7.00;1.00
2409;DHT22;8463;48.094;7.970;2024-03-23T17:28:22;7.00;1.00
2409;DHT22;8463;48.094;7.970;2024-03-23T17:30:47;7.00;1.00
2409;DHT22;8463;48.094;7.970;2024-03-23T17:33:14;7.00;1.00
2409;DHT22;8463;48.094;7.970;2024-03-23T17:35:40;7.10;1.00
2409;DHT22;8463;48.094;7.970;2024-03-23T17:38:05;7.10;1.00